Wetterdaten: Woche 10.04.17 - 16.04.17 (KW15)
Datum Zeit Temp. Aussen Temp. o. S. +5cm Feuchte Auss BlattFeu 1 Luftdruck Regen Sonnenschein Regendauer Solar Windben Empfang
10.04.2017 00:00 11,2 C 10,6 C 7,3 C 82 % 0 lf 1017,6 hPa 0,0 l/m 0,00 h 0,00 h 0 W/m 6,4 km/h (2 Bft) 98,00 %
10.04.2017 01:00 10,6 C 10,5 C 7,3 C 85 % 0 lf 1017,3 hPa 0,0 l/m 0,00 h 0,00 h 0 W/m 7,8 km/h (2 Bft) 96,74 %
10.04.2017 02:00 10,6 C 11,1 C 7,2 C 85 % 0 lf 1016,7 hPa 0,0 l/m 0,00 h 0,00 h 0 W/m 8,0 km/h (2 Bft) 94,23 %
10.04.2017 03:00 10,4 C 10,3 C 6,7 C 84 % 0 lf 1016,2 hPa 0,0 l/m 0,00 h 0,00 h 0 W/m 8,3 km/h (2 Bft) 96,64 %
10.04.2017 04:00 10,1 C 9,8 C 6,4 C 85 % 0 lf 1015,7 hPa 0,0 l/m 0,00 h 0,00 h 0 W/m 7,5 km/h (2 Bft) 95,94 %
10.04.2017 05:00 9,6 C 9,4 C 6,0 C 84 % 0 lf 1015,7 hPa 0,0 l/m 0,00 h 0,00 h 0 W/m 7,0 km/h (2 Bft) 96,74 %
10.04.2017 06:00 9,5 C 9,5 C 6,4 C 85 % 0 lf 1016,1 hPa 0,0 l/m 0,00 h 0,00 h 10 W/m 9,6 km/h (2 Bft) 96,30 %
10.04.2017 07:00 9,9 C 10,3 C 7,9 C 85 % 0 lf 1017,1 hPa 0,0 l/m 0,73 h 0,00 h 52 W/m 12,0 km/h (2 Bft) 95,52 %
10.04.2017 08:00 10,4 C 11,6 C 9,8 C 87 % 0 lf 1018,1 hPa 0,0 l/m 0,17 h 0,00 h 87 W/m 13,5 km/h (3 Bft) 95,85 %
10.04.2017 09:00 10,9 C 12,7 C 11,3 C 86 % 0 lf 1019,0 hPa 0,0 l/m 0,30 h 0,00 h 165 W/m 19,4 km/h (3 Bft) 97,67 %
10.04.2017 10:00 11,9 C 14,3 C 12,8 C 83 % 0 lf 1019,7 hPa 0,0 l/m 0,23 h 0,00 h 202 W/m 17,8 km/h (3 Bft) 95,36 %
10.04.2017 11:00 12,7 C 16,3 C 14,7 C 78 % 0 lf 1020,3 hPa 0,0 l/m 0,23 h 0,00 h 325 W/m 20,8 km/h (4 Bft) 96,16 %
10.04.2017 12:00 12,5 C 13,6 C 12,6 C 76 % 0 lf 1020,4 hPa 0,0 l/m 0,00 h 0,00 h 134 W/m 15,3 km/h (3 Bft) 97,15 %
10.04.2017 13:00 12,5 C 14,3 C 13,4 C 76 % 0 lf 1020,4 hPa 0,0 l/m 0,00 h 0,00 h 198 W/m 16,9 km/h (3 Bft) 96,31 %
10.04.2017 14:00 13,6 C 18,4 C 15,7 C 70 % 0 lf 1020,7 hPa 0,0 l/m 0,60 h 0,00 h 445 W/m 21,2 km/h (4 Bft) 95,74 %
10.04.2017 15:00 14,8 C 20,3 C 16,8 C 64 % 0 lf 1020,6 hPa 0,0 l/m 0,50 h 0,00 h 414 W/m 20,4 km/h (4 Bft) 97,22 %
10.04.2017 16:00 14,2 C 17,0 C 14,3 C 60 % 0 lf 1020,7 hPa 0,0 l/m 0,20 h 0,00 h 260 W/m 24,1 km/h (4 Bft) 94,73 %
10.04.2017 17:00 14,2 C 17,2 C 13,0 C 56 % 0 lf 1021,0 hPa 0,0 l/m 0,53 h 0,00 h 289 W/m 24,2 km/h (4 Bft) 96,26 %
10.04.2017 18:00 12,9 C 13,4 C 11,8 C 60 % 0 lf 1021,4 hPa 0,0 l/m 0,07 h 0,00 h 97 W/m 19,2 km/h (3 Bft) 98,52 %
10.04.2017 19:00 12,0 C 12,1 C 10,7 C 62 % 0 lf 1021,9 hPa 0,0 l/m 0,00 h 0,00 h 29 W/m 23,5 km/h (4 Bft) 93,89 %
10.04.2017 20:00 11,0 C 10,6 C 9,2 C 68 % 0 lf 1022,3 hPa 0,0 l/m 0,00 h 0,00 h 8 W/m 16,2 km/h (3 Bft) 96,99 %
10.04.2017 21:00 9,9 C 9,2 C 7,7 C 71 % 0 lf 1022,9 hPa 0,0 l/m 0,00 h 0,00 h 0 W/m 13,5 km/h (3 Bft) 96,02 %
10.04.2017 22:00 8,7 C 6,9 C 4,9 C 74 % 0 lf 1023,4 hPa 0,0 l/m 0,00 h 0,00 h 0 W/m 7,4 km/h (2 Bft) 95,43 %
10.04.2017 23:00 7,1 C 5,4 C 3,6 C 77 % 0 lf 1023,7 hPa 0,0 l/m 0,00 h 0,00 h 0 W/m 6,2 km/h (2 Bft) 98,11 %
11.04.2017 00:00 5,8 C 4,4 C 2,8 C 80 % 0 lf 1023,8 hPa 0,0 l/m 0,00 h 0,00 h 0 W/m 5,3 km/h (1 Bft) 95,60 %
11.04.2017 01:00 5,1 C 4,4 C 2,7 C 85 % 0 lf 1024,2 hPa 0,0 l/m 0,00 h 0,00 h 0 W/m 7,1 km/h (2 Bft) 94,65 %
11.04.2017 02:00 4,7 C 4,3 C 2,6 C 88 % 1 lf 1024,2 hPa 0,0 l/m 0,00 h 0,00 h 0 W/m 6,9 km/h (2 Bft) 96,00 %
11.04.2017 03:00 4,5 C 3,9 C 2,4 C 89 % 1 lf 1024,1 hPa 0,0 l/m 0,00 h 0,00 h 0 W/m 6,0 km/h (2 Bft) 97,99 %
11.04.2017 04:00 4,1 C 3,4 C 2,0 C 90 % 2 lf 1024,2 hPa 0,0 l/m 0,00 h 0,00 h 0 W/m 3,1 km/h (1 Bft) 96,78 %
11.04.2017 05:00 3,7 C 2,8 C 1,2 C 90 % 5 lf 1024,4 hPa 0,0 l/m 0,00 h 0,00 h 0 W/m 3,4 km/h (1 Bft) 94,52 %
11.04.2017 06:00 3,2 C 2,8 C 1,3 C 91 % 14 lf 1024,9 hPa 0,0 l/m 0,00 h 0,00 h 8 W/m 4,2 km/h (1 Bft) 96,74 %
11.04.2017 07:00 3,3 C 4,0 C 2,6 C 92 % 15 lf 1025,6 hPa 0,0 l/m 0,53 h 0,00 h 48 W/m 4,3 km/h (1 Bft) 95,74 %
11.04.2017 08:00 4,6 C 6,0 C 5,1 C 94 % 1 lf 1026,1 hPa 0,0 l/m 0,00 h 0,00 h 64 W/m 5,6 km/h (1 Bft) 97,04 %
11.04.2017 09:00 5,7 C 7,6 C 7,0 C 94 % 0 lf 1026,1 hPa 0,0 l/m 0,00 h 0,00 h 119 W/m 8,0 km/h (2 Bft) 97,28 %
11.04.2017 10:00 7,2 C 9,3 C 8,8 C 90 % 0 lf 1026,2 hPa 0,0 l/m 0,00 h 0,00 h 178 W/m 11,2 km/h (2 Bft) 94,42 %
11.04.2017 11:00 9,4 C 15,7 C 13,5 C 80 % 0 lf 1026,4 hPa 0,0 l/m 0,90 h 0,00 h 507 W/m 14,3 km/h (3 Bft) 95,72 %
11.04.2017 12:00 11,7 C 18,0 C 14,5 C 69 % 0 lf 1026,4 hPa 0,0 l/m 0,90 h 0,00 h 528 W/m 14,5 km/h (3 Bft) 98,65 %
11.04.2017 13:00 13,7 C 21,1 C 14,4 C 60 % 0 lf 1025,8 hPa 0,0 l/m 0,97 h 0,00 h 763 W/m 19,0 km/h (3 Bft) 93,83 %
11.04.2017 14:00 14,6 C 20,7 C 16,2 C 56 % 0 lf 1025,2 hPa 0,0 l/m 0,70 h 0,00 h 556 W/m 19,1 km/h (3 Bft) 96,36 %
11.04.2017 15:00 14,8 C 17,1 C 15,7 C 58 % 0 lf 1024,6 hPa 0,0 l/m 0,17 h 0,00 h 259 W/m 18,5 km/h (3 Bft) 97,15 %
11.04.2017 16:00 13,3 C 13,7 C 12,7 C 63 % 0 lf 1024,2 hPa 0,0 l/m 0,00 h 0,00 h 94 W/m 16,5 km/h (3 Bft) 93,81 %
11.04.2017 17:00 13,7 C 15,7 C 13,7 C 63 % 0 lf 1023,8 hPa 0,0 l/m 0,23 h 0,00 h 187 W/m 16,6 km/h (3 Bft) 97,37 %
11.04.2017 18:00 13,8 C 14,7 C 13,3 C 62 % 0 lf 1023,2 hPa 0,0 l/m 0,27 h 0,00 h 134 W/m 18,1 km/h (3 Bft) 96,30 %
11.04.2017 19:00 13,4 C 13,4 C 11,8 C 63 % 0 lf 1023,0 hPa 0,0 l/m 0,23 h 0,00 h 59 W/m 14,9 km/h (3 Bft) 95,37 %
11.04.2017 20:00 12,2 C 11,0 C 8,7 C 66 % 0 lf 1022,7 hPa 0,0 l/m 0,07 h 0,00 h 11 W/m 8,6 km/h (2 Bft) 95,87 %
11.04.2017 21:00 10,7 C 9,1 C 6,5 C 71 % 0 lf 1022,9 hPa 0,0 l/m 0,00 h 0,00 h 0 W/m 5,5 km/h (1 Bft) 98,15 %
11.04.2017 22:00 9,2 C 8,3 C 5,8 C 77 % 0 lf 1022,8 hPa 0,0 l/m 0,00 h 0,00 h 0 W/m 6,4 km/h (2 Bft) 94,30 %
11.04.2017 23:00 8,6 C 8,6 C 6,7 C 80 % 0 lf 1022,6 hPa 0,0 l/m 0,00 h 0,00 h 0 W/m 7,7 km/h (2 Bft) 96,29 %
12.04.2017 00:00 8,8 C 8,9 C 7,4 C 81 % 0 lf 1022,1 hPa 0,0 l/m 0,00 h 0,00 h 0 W/m 7,6 km/h (2 Bft) 96,30 %
12.04.2017 01:00 8,6 C 8,1 C 6,2 C 81 % 0 lf 1021,6 hPa 0,0 l/m 0,00 h 0,00 h 0 W/m 8,4 km/h (2 Bft) 96,01 %
12.04.2017 02:00 8,0 C 7,7 C 5,6 C 82 % 0 lf 1020,9 hPa 0,0 l/m 0,00 h 0,00 h 0 W/m 9,4 km/h (2 Bft) 97,79 %
12.04.2017 03:00 7,6 C 7,3 C 5,7 C 84 % 0 lf 1020,2 hPa 0,0 l/m 0,00 h 0,00 h 0 W/m 10,7 km/h (2 Bft) 94,24 %
12.04.2017 04:00 7,3 C 7,0 C 5,2 C 85 % 0 lf 1019,5 hPa 0,0 l/m 0,00 h 0,00 h 0 W/m 11,5 km/h (2 Bft) 96,44 %
12.04.2017 05:00 7,2 C 7,5 C 5,9 C 86 % 0 lf 1018,8 hPa 0,0 l/m 0,00 h 0,00 h 0 W/m 17,9 km/h (3 Bft) 97,65 %
12.04.2017 06:00 7,6 C 7,8 C 6,3 C 85 % 0 lf 1018,3 hPa 0,0 l/m 0,00 h 0,00 h 6 W/m 17,7 km/h (3 Bft) 95,66 %
12.04.2017 07:00 7,4 C 7,8 C 6,4 C 84 % 0 lf 1017,9 hPa 0,0 l/m 0,00 h 0,00 h 41 W/m 18,4 km/h (3 Bft) 94,63 %
12.04.2017 08:00 7,8 C 8,9 C 7,4 C 84 % 0 lf 1017,9 hPa 0,0 l/m 0,00 h 0,00 h 109 W/m 19,5 km/h (3 Bft) 96,88 %
12.04.2017 09:00 8,9 C 11,4 C 9,7 C 83 % 0 lf 1017,3 hPa 0,0 l/m 0,60 h 0,00 h 228 W/m 21,1 km/h (4 Bft) 94,82 %
12.04.2017 10:00 10,3 C 13,0 C 11,9 C 80 % 0 lf 1016,8 hPa 0,0 l/m 0,57 h 0,00 h 289 W/m 25,6 km/h (4 Bft) 98,01 %
12.04.2017 11:00 12,2 C 16,3 C 14,9 C 74 % 0 lf 1016,3 hPa 0,0 l/m 0,77 h 0,00 h 437 W/m 26,5 km/h (4 Bft) 94,80 %
12.04.2017 12:00 13,2 C 15,4 C 15,0 C 70 % 0 lf 1015,8 hPa 0,0 l/m 0,37 h 0,00 h 335 W/m 28,6 km/h (4 Bft) 95,51 %
12.04.2017 13:00 13,4 C 15,6 C 15,0 C 71 % 0 lf 1015,2 hPa 0,0 l/m 0,40 h 0,00 h 318 W/m 24,7 km/h (4 Bft) 97,47 %
12.04.2017 14:00 14,3 C 17,2 C 16,6 C 67 % 0 lf 1014,7 hPa 0,0 l/m 0,93 h 0,00 h 434 W/m 28,1 km/h (4 Bft) 96,43 %
12.04.2017 15:00 14,3 C 16,5 C 15,9 C 67 % 0 lf 1014,4 hPa 0,0 l/m 0,40 h 0,00 h 328 W/m 27,1 km/h (4 Bft) 94,24 %
12.04.2017 16:00 14,0 C 15,1 C 14,3 C 69 % 0 lf 1013,5 hPa 0,0 l/m 0,07 h 0,00 h 167 W/m 21,7 km/h (4 Bft) 98,22 %
12.04.2017 17:00 13,7 C 14,4 C 13,4 C 71 % 0 lf 1012,9 hPa 0,0 l/m 0,07 h 0,00 h 112 W/m 22,0 km/h (4 Bft) 96,22 %
12.04.2017 18:00 12,6 C 12,7 C 11,7 C 74 % 0 lf 1013,2 hPa 0,0 l/m 0,00 h 0,13 h 73 W/m 26,2 km/h (4 Bft) 93,81 %
12.04.2017 19:00 11,1 C 11,1 C 9,9 C 77 % 1 lf 1013,4 hPa 0,0 l/m 0,00 h 0,10 h 27 W/m 27,8 km/h (4 Bft) 98,65 %
12.04.2017 20:00 10,4 C 10,5 C 9,1 C 77 % 0 lf 1013,4 hPa 0,0 l/m 0,00 h 0,00 h 7 W/m 22,8 km/h (4 Bft) 97,22 %
12.04.2017 21:00 10,2 C 10,6 C 8,9 C 78 % 0 lf 1013,5 hPa 0,0 l/m 0,00 h 0,00 h 0 W/m 19,1 km/h (3 Bft) 93,88 %
12.04.2017 22:00 10,3 C 10,5 C 8,9 C 79 % 0 lf 1013,4 hPa 0,0 l/m 0,00 h 0,00 h 0 W/m 21,2 km/h (4 Bft) 96,79 %
12.04.2017 23:00 10,0 C 9,7 C 8,4 C 83 % 5 lf 1013,3 hPa 0,0 l/m 0,00 h 0,23 h 0 W/m 19,0 km/h (3 Bft) 96,02 %
13.04.2017 00:00 9,5 C 9,2 C 7,3 C 88 % 15 lf 1012,9 hPa 0,0 l/m 0,00 h 0,13 h 0 W/m 20,3 km/h (4 Bft) 93,85 %
13.04.2017 01:00 9,4 C 9,4 C 7,9 C 87 % 0 lf 1012,6 hPa 0,0 l/m 0,00 h 0,00 h 0 W/m 22,0 km/h (4 Bft) 96,44 %
13.04.2017 02:00 9,1 C 9,0 C 7,6 C 87 % 0 lf 1012,4 hPa 0,0 l/m 0,00 h 0,03 h 0 W/m 16,0 km/h (3 Bft) 94,87 %
13.04.2017 03:00 9,3 C 9,4 C 8,2 C 88 % 0 lf 1012,2 hPa 0,0 l/m 0,00 h 0,03 h 0 W/m 14,9 km/h (3 Bft) 96,66 %
13.04.2017 04:00 9,2 C 8,6 C 7,1 C 90 % 14 lf 1012,1 hPa 0,2 l/m 0,00 h 0,40 h 0 W/m 15,2 km/h (3 Bft) 98,65 %
13.04.2017 05:00 8,5 C 8,2 C 6,5 C 93 % 15 lf 1012,1 hPa 0,0 l/m 0,00 h 0,00 h 0 W/m 13,9 km/h (3 Bft) 93,24 %
13.04.2017 06:00 8,4 C 8,2 C 6,5 C 94 % 13 lf 1012,2 hPa 0,0 l/m 0,00 h 0,00 h 8 W/m 14,6 km/h (3 Bft) 96,58 %
13.04.2017 07:00 8,0 C 8,3 C 6,6 C 95 % 1 lf 1012,8 hPa 0,0 l/m 0,13 h 0,00 h 45 W/m 16,2 km/h (3 Bft) 96,90 %
13.04.2017 08:00 8,1 C 9,5 C 7,8 C 94 % 0 lf 1013,5 hPa 0,0 l/m 0,60 h 0,00 h 149 W/m 15,9 km/h (3 Bft) 96,55 %
13.04.2017 09:00 9,2 C 12,0 C 10,2 C 92 % 0 lf 1013,9 hPa 0,0 l/m 0,60 h 0,00 h 223 W/m 19,5 km/h (3 Bft) 95,73 %
13.04.2017 10:00 10,4 C 13,1 C 11,9 C 84 % 0 lf 1014,4 hPa 0,0 l/m 0,17 h 0,00 h 247 W/m 22,4 km/h (4 Bft) 95,51 %
13.04.2017 11:00 10,7 C 12,1 C 11,1 C 81 % 0 lf 1015,0 hPa 0,0 l/m 0,00 h 0,00 h 155 W/m 16,7 km/h (3 Bft) 95,52 %
13.04.2017 12:00 11,5 C 14,0 C 13,0 C 75 % 0 lf 1015,1 hPa 0,0 l/m 0,13 h 0,00 h 235 W/m 20,3 km/h (4 Bft) 98,15 %
13.04.2017 13:00 11,8 C 14,4 C 13,3 C 72 % 0 lf 1015,1 hPa 0,0 l/m 0,20 h 0,00 h 281 W/m 17,7 km/h (3 Bft) 94,60 %
13.04.2017 14:00 12,9 C 17,0 C 14,9 C 66 % 0 lf 1015,0 hPa 0,0 l/m 0,43 h 0,00 h 401 W/m 21,1 km/h (4 Bft) 96,09 %
13.04.2017 15:00 13,5 C 16,7 C 14,8 C 61 % 0 lf 1014,7 hPa 0,0 l/m 0,17 h 0,00 h 301 W/m 20,1 km/h (4 Bft) 97,22 %
13.04.2017 16:00 13,6 C 16,3 C 14,6 C 60 % 0 lf 1014,5 hPa 0,0 l/m 0,17 h 0,00 h 243 W/m 19,7 km/h (3 Bft) 94,95 %
13.04.2017 17:00 13,0 C 13,9 C 12,8 C 60 % 0 lf 1014,4 hPa 0,0 l/m 0,00 h 0,00 h 119 W/m 17,4 km/h (3 Bft) 95,58 %
13.04.2017 18:00 12,6 C 13,4 C 12,1 C 60 % 0 lf 1014,5 hPa 0,0 l/m 0,03 h 0,00 h 107 W/m 19,2 km/h (3 Bft) 99,57 %
13.04.2017 19:00 12,2 C 12,5 C 11,0 C 62 % 0 lf 1014,6 hPa 0,0 l/m 0,37 h 0,00 h 63 W/m 17,6 km/h (3 Bft) 93,82 %
13.04.2017 20:00 11,1 C 9,8 C 7,8 C 64 % 0 lf 1015,0 hPa 0,0 l/m 0,23 h 0,00 h 15 W/m 12,1 km/h (2 Bft) 96,09 %
13.04.2017 21:00 9,2 C 7,0 C 4,9 C 70 % 0 lf 1015,5 hPa 0,0 l/m 0,00 h 0,00 h 4 W/m 7,1 km/h (2 Bft) 97,29 %
13.04.2017 22:00 7,5 C 5,4 C 3,6 C 75 % 0 lf 1015,7 hPa 0,0 l/m 0,00 h 0,00 h 4 W/m 3,1 km/h (1 Bft) 96,37 %
13.04.2017 23:00 6,2 C 4,3 C 2,7 C 79 % 0 lf 1016,0 hPa 0,0 l/m 0,00 h 0,00 h 3 W/m 2,4 km/h (1 Bft) 95,87 %
14.04.2017 00:00 5,1 C 3,8 C 2,1 C 83 % 1 lf 1016,1 hPa 0,0 l/m 0,00 h 0,00 h 0 W/m 4,1 km/h (1 Bft) 95,22 %
14.04.2017 01:00 4,3 C 3,6 C 1,9 C 87 % 1 lf 1016,2 hPa 0,0 l/m 0,00 h 0,00 h 0 W/m 6,0 km/h (2 Bft) 96,77 %
14.04.2017 02:00 3,8 C 3,3 C 1,7 C 88 % 1 lf 1016,1 hPa 0,0 l/m 0,00 h 0,00 h 4 W/m 5,3 km/h (1 Bft) 95,88 %
14.04.2017 03:00 3,4 C 3,1 C 1,4 C 89 % 2 lf 1015,9 hPa 0,0 l/m 0,00 h 0,00 h 0 W/m 6,4 km/h (2 Bft) 97,51 %
14.04.2017 04:00 3,0 C 2,4 C 0,8 C 90 % 4 lf 1015,7 hPa 0,0 l/m 0,00 h 0,00 h 3 W/m 5,0 km/h (1 Bft) 97,58 %
14.04.2017 05:00 2,7 C 2,3 C 0,8 C 92 % 9 lf 1015,7 hPa 0,0 l/m 0,00 h 0,00 h 0 W/m 6,0 km/h (2 Bft) 93,45 %
14.04.2017 06:00 2,7 C 2,8 C 1,1 C 93 % 10 lf 1015,7 hPa 0,0 l/m 0,00 h 0,00 h 9 W/m 5,9 km/h (2 Bft) 97,09 %
14.04.2017 07:00 3,6 C 4,7 C 3,5 C 94 % 0 lf 1015,9 hPa 0,0 l/m 0,00 h 0,00 h 19 W/m 9,4 km/h (2 Bft) 98,00 %
14.04.2017 08:00 4,9 C 6,4 C 5,3 C 94 % 0 lf 1016,1 hPa 0,0 l/m 0,00 h 0,00 h 54 W/m 10,5 km/h (2 Bft) 94,66 %
14.04.2017 09:00 6,4 C 8,0 C 7,2 C 91 % 0 lf 1016,2 hPa 0,0 l/m 0,00 h 0,00 h 100 W/m 11,4 km/h (2 Bft) 96,37 %
14.04.2017 10:00 8,2 C 10,8 C 10,0 C 85 % 0 lf 1016,3 hPa 0,0 l/m 0,37 h 0,00 h 295 W/m 15,4 km/h (3 Bft) 96,93 %
14.04.2017 11:00 10,7 C 14,0 C 13,5 C 78 % 0 lf 1016,3 hPa 0,0 l/m 1,00 h 0,00 h 364 W/m 17,4 km/h (3 Bft) 94,88 %
14.04.2017 12:00 12,2 C 14,7 C 14,3 C 70 % 0 lf 1016,2 hPa 0,0 l/m 0,50 h 0,00 h 299 W/m 16,7 km/h (3 Bft) 97,16 %
14.04.2017 13:00 11,8 C 12,6 C 11,7 C 67 % 0 lf 1016,2 hPa 0,0 l/m 0,00 h 0,00 h 119 W/m 15,1 km/h (3 Bft) 96,01 %
14.04.2017 14:00 11,7 C 13,0 C 12,2 C 67 % 0 lf 1016,0 hPa 0,0 l/m 0,00 h 0,00 h 148 W/m 12,6 km/h (3 Bft) 95,38 %
14.04.2017 15:00 11,7 C 12,4 C 11,2 C 67 % 0 lf 1015,8 hPa 0,0 l/m 0,00 h 0,00 h 82 W/m 12,0 km/h (2 Bft) 98,43 %
14.04.2017 16:00 11,5 C 12,5 C 11,5 C 70 % 0 lf 1015,3 hPa 0,0 l/m 0,00 h 0,00 h 112 W/m 9,9 km/h (2 Bft) 95,51 %
14.04.2017 17:00 11,6 C 12,2 C 11,2 C 69 % 0 lf 1015,1 hPa 0,0 l/m 0,00 h 0,00 h 73 W/m 13,5 km/h (3 Bft) 94,58 %
14.04.2017 18:00 11,1 C 11,3 C 10,1 C 71 % 0 lf 1015,0 hPa 0,0 l/m 0,00 h 0,00 h 36 W/m 14,2 km/h (3 Bft) 98,15 %
14.04.2017 19:00 10,7 C 10,7 C 9,4 C 73 % 0 lf 1014,8 hPa 0,0 l/m 0,00 h 0,00 h 24 W/m 7,4 km/h (2 Bft) 96,44 %
14.04.2017 20:00 10,3 C 9,8 C 8,2 C 73 % 0 lf 1014,8 hPa 0,0 l/m 0,00 h 0,00 h 9 W/m 2,3 km/h (1 Bft) 94,81 %
14.04.2017 21:00 9,7 C 8,7 C 6,5 C 75 % 0 lf 1015,1 hPa 0,0 l/m 0,00 h 0,00 h 3 W/m 0,0 km/h (0 Bft) 97,51 %
14.04.2017 22:00 8,4 C 7,2 C 5,0 C 79 % 0 lf 1014,9 hPa 0,0 l/m 0,00 h 0,00 h 4 W/m 2,6 km/h (1 Bft) 96,15 %
14.04.2017 23:00 7,5 C 7,5 C 5,4 C 84 % 0 lf 1014,5 hPa 0,0 l/m 0,00 h 0,00 h 0 W/m 6,4 km/h (2 Bft) 96,70 %
15.04.2017 00:00 7,7 C 8,5 C 6,9 C 86 % 0 lf 1014,2 hPa 0,0 l/m 0,00 h 0,00 h 0 W/m 6,7 km/h (2 Bft) 96,79 %
15.04.2017 01:00 8,3 C 8,4 C 6,6 C 85 % 0 lf 1013,7 hPa 0,0 l/m 0,00 h 0,00 h 0 W/m 10,8 km/h (2 Bft) 93,92 %
15.04.2017 02:00 8,2 C 8,2 C 6,5 C 84 % 0 lf 1013,5 hPa 0,0 l/m 0,00 h 0,00 h 0 W/m 13,0 km/h (3 Bft) 97,79 %
15.04.2017 03:00 8,3 C 8,4 C 7,1 C 84 % 0 lf 1013,1 hPa 0,0 l/m 0,00 h 0,00 h 0 W/m 12,7 km/h (3 Bft) 97,58 %
15.04.2017 04:00 8,5 C 8,7 C 7,2 C 82 % 0 lf 1012,7 hPa 0,0 l/m 0,00 h 0,00 h 0 W/m 15,3 km/h (3 Bft) 93,46 %
15.04.2017 05:00 8,7 C 8,9 C 7,5 C 81 % 0 lf 1012,4 hPa 0,0 l/m 0,00 h 0,00 h 0 W/m 19,7 km/h (3 Bft) 97,79 %
15.04.2017 06:00 8,7 C 8,7 C 7,0 C 83 % 5 lf 1012,3 hPa 0,0 l/m 0,00 h 0,63 h 5 W/m 20,7 km/h (4 Bft) 96,79 %
15.04.2017 07:00 8,3 C 7,8 C 6,1 C 87 % 15 lf 1012,4 hPa 0,0 l/m 0,00 h 0,70 h 15 W/m 21,2 km/h (4 Bft) 96,23 %
15.04.2017 08:00 7,9 C 7,3 C 6,4 C 92 % 15 lf 1012,5 hPa 0,2 l/m 0,00 h 0,73 h 30 W/m 20,3 km/h (4 Bft) 95,59 %
15.04.2017 09:00 8,2 C 8,2 C 7,2 C 95 % 14 lf 1012,8 hPa 0,0 l/m 0,00 h 0,00 h 61 W/m 21,7 km/h (4 Bft) 95,94 %
15.04.2017 10:00 8,9 C 9,9 C 8,5 C 95 % 1 lf 1013,2 hPa 0,0 l/m 0,00 h 0,00 h 100 W/m 18,2 km/h (3 Bft) 95,87 %
15.04.2017 11:00 9,7 C 10,4 C 8,9 C 95 % 8 lf 1013,5 hPa 0,4 l/m 0,00 h 0,47 h 95 W/m 17,6 km/h (3 Bft) 98,08 %
15.04.2017 12:00 9,1 C 9,4 C 8,4 C 93 % 15 lf 1013,9 hPa 0,6 l/m 0,03 h 0,77 h 170 W/m 18,9 km/h (3 Bft) 95,09 %
15.04.2017 13:00 10,8 C 12,5 C 10,7 C 90 % 8 lf 1013,8 hPa 0,0 l/m 0,27 h 0,00 h 232 W/m 20,4 km/h (4 Bft) 96,24 %
15.04.2017 14:00 11,2 C 13,2 C 10,7 C 79 % 0 lf 1014,0 hPa 0,0 l/m 0,13 h 0,00 h 225 W/m 23,2 km/h (4 Bft) 95,73 %
15.04.2017 15:00 12,3 C 15,2 C 13,5 C 70 % 0 lf 1014,0 hPa 0,0 l/m 0,40 h 0,00 h 339 W/m 29,9 km/h (5 Bft) 98,79 %
15.04.2017 16:00 12,3 C 13,9 C 12,6 C 61 % 0 lf 1014,3 hPa 0,0 l/m 0,13 h 0,00 h 243 W/m 32,8 km/h (5 Bft) 94,09 %
15.04.2017 17:00 11,7 C 13,0 C 11,8 C 58 % 0 lf 1014,7 hPa 0,0 l/m 0,27 h 0,00 h 211 W/m 31,9 km/h (5 Bft) 97,01 %
15.04.2017 18:00 11,4 C 12,4 C 10,7 C 60 % 0 lf 1015,0 hPa 0,0 l/m 0,70 h 0,00 h 192 W/m 25,3 km/h (4 Bft) 97,51 %
15.04.2017 19:00 10,7 C 10,7 C 8,7 C 63 % 0 lf 1015,4 hPa 0,0 l/m 0,27 h 0,00 h 64 W/m 22,9 km/h (4 Bft) 95,66 %
15.04.2017 20:00 9,2 C 8,2 C 6,0 C 65 % 0 lf 1016,0 hPa 0,0 l/m 0,17 h 0,00 h 13 W/m 14,6 km/h (3 Bft) 94,80 %
15.04.2017 21:00 7,6 C 5,3 C 3,1 C 69 % 0 lf 1016,6 hPa 0,0 l/m 0,00 h 0,00 h 3 W/m 5,3 km/h (1 Bft) 98,30 %
15.04.2017 22:00 6,1 C 5,0 C 2,7 C 74 % 0 lf 1016,8 hPa 0,0 l/m 0,00 h 0,00 h 0 W/m 7,0 km/h (2 Bft) 95,51 %
15.04.2017 23:00 5,3 C 5,0 C 2,9 C 79 % 0 lf 1016,7 hPa 0,0 l/m 0,00 h 0,00 h 0 W/m 9,0 km/h (2 Bft) 97,15 %
16.04.2017 00:00 5,2 C 5,4 C 3,7 C 83 % 0 lf 1016,7 hPa 0,0 l/m 0,00 h 0,00 h 0 W/m 9,7 km/h (2 Bft) 95,82 %
16.04.2017 01:00 6,2 C 6,8 C 5,3 C 83 % 0 lf 1016,9 hPa 0,0 l/m 0,00 h 0,03 h 0 W/m 14,4 km/h (3 Bft) 94,09 %
16.04.2017 02:00 6,8 C 7,1 C 5,6 C 81 % 0 lf 1016,9 hPa 0,0 l/m 0,00 h 0,00 h 0 W/m 17,4 km/h (3 Bft) 98,86 %
16.04.2017 03:00 6,8 C 6,6 C 5,0 C 80 % 0 lf 1017,0 hPa 0,0 l/m 0,00 h 0,00 h 0 W/m 11,7 km/h (2 Bft) 96,94 %
16.04.2017 04:00 6,2 C 5,2 C 3,2 C 81 % 0 lf 1017,0 hPa 0,0 l/m 0,00 h 0,00 h 0 W/m 7,4 km/h (2 Bft) 94,10 %
16.04.2017 05:00 5,4 C 5,3 C 3,5 C 84 % 0 lf 1017,1 hPa 0,0 l/m 0,00 h 0,00 h 0 W/m 11,3 km/h (2 Bft) 96,93 %
16.04.2017 06:00 5,1 C 5,0 C 3,3 C 86 % 0 lf 1017,4 hPa 0,0 l/m 0,03 h 0,00 h 11 W/m 10,7 km/h (2 Bft) 97,01 %
16.04.2017 07:00 5,2 C 5,8 C 4,2 C 88 % 0 lf 1017,7 hPa 0,0 l/m 0,17 h 0,00 h 57 W/m 11,7 km/h (2 Bft) 95,73 %
16.04.2017 08:00 6,3 C 8,2 C 6,7 C 88 % 0 lf 1018,0 hPa 0,0 l/m 0,90 h 0,00 h 158 W/m 14,0 km/h (3 Bft) 96,65 %
16.04.2017 09:00 8,1 C 11,8 C 9,5 C 85 % 0 lf 1018,2 hPa 0,0 l/m 0,73 h 0,00 h 261 W/m 16,0 km/h (3 Bft) 95,59 %
16.04.2017 10:00 9,8 C 13,0 C 11,5 C 81 % 0 lf 1018,3 hPa 0,0 l/m 0,43 h 0,00 h 291 W/m 17,6 km/h (3 Bft) 96,94 %
16.04.2017 11:00 10,3 C 12,7 C 11,7 C 79 % 0 lf 1018,3 hPa 0,0 l/m 0,23 h 0,07 h 263 W/m 18,7 km/h (3 Bft) 97,08 %
16.04.2017 12:00 10,6 C 12,5 C 11,1 C 75 % 4 lf 1018,4 hPa 0,0 l/m 0,23 h 0,17 h 233 W/m 21,7 km/h (4 Bft) 95,04 %
16.04.2017 13:00 10,2 C 12,6 C 11,4 C 75 % 3 lf 1018,5 hPa 0,4 l/m 0,13 h 0,03 h 243 W/m 19,0 km/h (3 Bft) 95,73 %
16.04.2017 14:00 8,2 C 7,6 C 6,4 C 84 % 15 lf 1019,0 hPa 0,8 l/m 0,00 h 0,53 h 129 W/m 14,0 km/h (3 Bft) 97,92 %
16.04.2017 15:00 9,0 C 12,6 C 9,5 C 89 % 9 lf 1018,6 hPa 0,0 l/m 0,47 h 0,00 h 353 W/m 13,1 km/h (3 Bft) 94,66 %
16.04.2017 16:00 11,1 C 15,0 C 11,3 C 74 % 0 lf 1018,3 hPa 0,0 l/m 0,43 h 0,00 h 336 W/m 20,4 km/h (4 Bft) 96,73 %
16.04.2017 17:00 9,8 C 11,1 C 8,6 C 76 % 9 lf 1018,3 hPa 0,0 l/m 0,10 h 0,33 h 157 W/m 16,1 km/h (3 Bft) 96,80 %
16.04.2017 18:00 10,0 C 11,7 C 10,0 C 76 % 0 lf 1018,2 hPa 0,0 l/m 0,70 h 0,00 h 201 W/m 18,1 km/h (3 Bft) 97,36 %
16.04.2017 19:00 9,6 C 9,7 C 8,0 C 72 % 0 lf 1018,4 hPa 0,0 l/m 0,20 h 0,00 h 63 W/m 18,5 km/h (3 Bft) 94,09 %
16.04.2017 20:00 8,5 C 7,3 C 5,3 C 73 % 0 lf 1018,7 hPa 0,0 l/m 0,00 h 0,00 h 12 W/m 11,2 km/h (2 Bft) 96,56 %
16.04.2017 21:00 7,2 C 6,1 C 4,2 C 75 % 0 lf 1019,0 hPa 0,0 l/m 0,00 h 0,00 h 5 W/m 6,2 km/h (2 Bft) 97,15 %
16.04.2017 22:00 6,3 C 5,3 C 3,4 C 77 % 0 lf 1019,1 hPa 0,0 l/m 0,00 h 0,00 h 4 W/m 6,2 km/h (2 Bft) 95,66 %
16.04.2017 23:00 5,8 C 5,9 C 4,2 C 79 % 0 lf 1018,9 hPa 0,0 l/m 0,00 h 0,00 h 0 W/m 5,5 km/h (1 Bft) 95,94 %
Min-Datum _ 14.04.17 11.04.17 14.04.17 11.04.17 10.04.17 13.04.17 - - - - 10.04.17 13.04.17
_ Min-Zeit 06:30 06:42 04:10 14:20 00:00 04:16 - - - - 23:46 00:02
Minimum _ 2,6 C 2,2 C 0,6 C 53 % 0 lf 1012,0 hPa - - - - 0,0 km/h (0 Bft) 14,29 %
Max-Datum _ 11.04.17 10.04.17 11.04.17 15.04.17 11.04.17 11.04.17 16.04.17 12.04.17 12.04.17 13.04.17 12.04.17 10.04.17
_ Max-Zeit 15:08 15:38 15:00 10:28 06:32 11:36 14:00 13:28 18:08 14:28 15:42 00:14
Maximum _ 15,7 C 25,0 C 22,8 C 96 % 15 lf 1026,5 hPa 0,8 l/m 0,07 h 0,03 h 974 W/m 46,0 km/h
W (6 Bft)
100,00 %
Durchschnitt _ 9,3 C 10,1 C 8,4 C 78 % 1 lf 1017,5 hPa #2,6 l/m #24:56 h #5:32 h 159 W/m 14,5 km/h (3 Bft) 96,21 %
© 2017 W. Hausmann